Time,TemperatureF,DewpointF,PressureIn,WindDirection,WindDirectionDegrees,WindSpeedMPH,WindSpeedGustMPH,Humidity,HourlyPrecipIn,Conditions,Clouds,dailyrainin,SoftwareType,DateUTC
2013-06-08 00:02:00,67.6,66.4,29.94,NNE,22,0.0,0.0,96,0.00,RA,,0.00,WeatherDisplay:10.37,2013-06-08 05:02:00,
2013-06-08 00:07:00,67.6,66.4,29.94,NNE,22,0.0,0.0,96,0.00,RA,,0.00,WeatherDisplay:10.37,2013-06-08 05:07:00,
2013-06-08 00:12:00,67.6,66.4,29.94,NNE,22,0.0,0.0,96,0.00,CLR,,0.00,WeatherDisplay:10.37,2013-06-08 05:12:00,
2013-06-08 00:17:00,67.3,66.1,29.94,NNE,22,0.0,0.0,96,0.00,CLR,,0.00,WeatherDisplay:10.37,2013-06-08 05:17:00,
2013-06-08 00:22:00,67.1,65.9,29.94,NNE,22,0.0,0.0,96,0.00,CLR,,0.00,WeatherDisplay:10.37,2013-06-08 05:22:00,
2013-06-08 00:27:00,66.9,65.7,29.94,NNE,22,0.0,0.0,96,0.00,CLR,,0.00,WeatherDisplay:10.37,2013-06-08 05:27:00,
2013-06-08 00:32:00,66.9,65.7,29.94,NNE,22,0.0,0.0,96,0.00,CLR,,0.00,WeatherDisplay:10.37,2013-06-08 05:32:00,
2013-06-08 00:37:00,67.1,65.9,29.94,NNE,22,0.0,0.0,96,0.00,CLR,,0.00,WeatherDisplay:10.37,2013-06-08 05:37:00,
2013-06-08 00:42:00,67.1,65.9,29.94,NNE,22,0.0,0.0,96,0.00,CLR,,0.00,WeatherDisplay:10.37,2013-06-08 05:42:00,
2013-06-08 00:47:00,67.3,66.1,29.94,NNE,22,0.0,0.0,96,0.00,CLR,,0.00,WeatherDisplay:10.37,2013-06-08 05:47:00,
2013-06-08 00:52:00,67.3,66.1,29.94,NNE,22,0.0,0.0,96,0.00,CLR,,0.00,WeatherDisplay:10.37,2013-06-08 05:52:00,
2013-06-08 00:57:00,67.3,66.1,29.94,NNE,22,0.0,0.0,96,0.00,CLR,,0.00,WeatherDisplay:10.37,2013-06-08 05:57:00,
2013-06-08 01:02:00,67.1,65.9,29.94,NNE,22,0.0,0.0,96,0.00,CLR,,0.00,WeatherDisplay:10.37,2013-06-08 06:02:00,
2013-06-08 01:07:00,67.1,65.9,29.95,NNE,22,0.0,0.0,96,0.00,CLR,,0.00,WeatherDisplay:10.37,2013-06-08 06:07:00,
2013-06-08 01:12:00,67.1,65.9,29.94,NNE,22,0.0,0.0,96,0.00,CLR,,0.00,WeatherDisplay:10.37,2013-06-08 06:12:00,
2013-06-08 01:17:00,67.1,65.9,29.94,NNE,22,0.0,0.0,96,0.00,CLR,,0.00,WeatherDisplay:10.37,2013-06-08 06:17:00,
2013-06-08 01:22:00,67.1,65.9,29.95,NNE,22,0.0,0.0,96,0.00,CLR,,0.00,WeatherDisplay:10.37,2013-06-08 06:22:00,
2013-06-08 01:27:00,67.1,65.9,29.95,NNE,22,0.0,0.0,96,0.00,CLR,,0.00,WeatherDisplay:10.37,2013-06-08 06:27:00,
2013-06-08 01:32:00,67.1,65.9,29.94,NNE,22,0.0,0.0,96,0.00,CLR,,0.00,WeatherDisplay:10.37,2013-06-08 06:32:00,
2013-06-08 01:37:00,67.1,65.9,29.94,NNE,22,0.0,0.0,96,0.00,CLR,,0.00,WeatherDisplay:10.37,2013-06-08 06:37:00,
2013-06-08 01:42:00,67.1,65.9,29.94,NNE,22,0.0,0.0,96,0.00,CLR,,0.00,WeatherDisplay:10.37,2013-06-08 06:42:00,
2013-06-08 01:47:00,67.1,65.9,29.95,NNE,22,0.0,0.0,96,0.00,CLR,,0.00,WeatherDisplay:10.37,2013-06-08 06:47:00,
2013-06-08 01:52:00,66.8,65.6,29.94,NNE,22,0.0,0.0,96,0.00,CLR,,0.00,WeatherDisplay:10.37,2013-06-08 06:52:00,
2013-06-08 01:57:00,66.6,65.4,29.95,NNE,22,0.0,0.0,96,0.00,CLR,,0.00,WeatherDisplay:10.37,2013-06-08 06:57:00,
2013-06-08 02:02:00,66.3,65.1,29.95,NNE,22,0.0,0.0,96,0.00,CLR,,0.00,WeatherDisplay:10.37,2013-06-08 07:02:00,
2013-06-08 02:07:00,66.3,65.1,29.95,NNE,22,0.0,0.0,96,0.00,CLR,,0.00,WeatherDisplay:10.37,2013-06-08 07:07:00,
2013-06-08 02:12:00,66.3,65.1,29.95,NNE,22,0.0,0.0,96,0.00,CLR,,0.00,WeatherDisplay:10.37,2013-06-08 07:12:00,
2013-06-08 02:17:00,66.1,64.9,29.95,NNE,22,0.0,0.0,96,0.00,CLR,,0.00,WeatherDisplay:10.37,2013-06-08 07:17:00,
2013-06-08 02:22:00,66.1,64.9,29.95,NNE,22,0.0,0.0,96,0.00,CLR,,0.00,WeatherDisplay:10.37,2013-06-08 07:22:00,
2013-06-08 02:27:00,66.1,64.9,29.96,NNE,22,0.0,0.0,96,0.00,CLR,,0.00,WeatherDisplay:10.37,2013-06-08 07:27:00,
2013-06-08 02:32:00,66.1,64.9,29.96,NNE,22,0.0,0.0,96,0.00,CLR,,0.00,WeatherDisplay:10.37,2013-06-08 07:32:00,
2013-06-08 02:37:00,66.3,65.1,29.96,NNE,22,0.0,0.0,96,0.00,CLR,,0.00,WeatherDisplay:10.37,2013-06-08 07:37:00,
2013-06-08 02:42:00,66.3,65.1,29.96,NNE,22,0.0,0.0,96,0.00,CLR,,0.00,WeatherDisplay:10.37,2013-06-08 07:42:00,
2013-06-08 02:47:00,66.3,65.1,29.96,NNE,22,0.0,0.0,96,0.00,CLR,,0.00,WeatherDisplay:10.37,2013-06-08 07:47:00,
2013-06-08 02:52:00,66.3,65.1,29.96,NNE,22,0.0,0.0,96,0.00,CLR,,0.00,WeatherDisplay:10.37,2013-06-08 07:52:00,
2013-06-08 02:57:00,66.3,65.1,29.96,NNE,22,0.0,0.0,96,0.00,CLR,,0.00,WeatherDisplay:10.37,2013-06-08 07:57:00,
2013-06-08 03:02:00,66.1,64.9,29.96,NNE,22,1.1,1.1,96,0.00,CLR,,0.00,WeatherDisplay:10.37,2013-06-08 08:02:00,
2013-06-08 03:07:00,65.8,64.6,29.97,NNE,22,0.0,0.0,96,0.00,CLR,,0.00,WeatherDisplay:10.37,2013-06-08 08:07:00,
2013-06-08 03:12:00,65.6,64.4,29.97,NNE,22,0.0,0.0,96,0.00,CLR,,0.00,WeatherDisplay:10.37,2013-06-08 08:12:00,
2013-06-08 03:17:00,65.5,64.3,29.97,NNE,22,0.0,0.0,96,0.00,CLR,,0.00,WeatherDisplay:10.37,2013-06-08 08:17:00,
2013-06-08 03:22:00,65.5,64.3,29.97,NNE,22,0.0,0.0,96,0.00,CLR,,0.00,WeatherDisplay:10.37,2013-06-08 08:22:00,
2013-06-08 03:27:00,65.3,64.1,29.97,NNE,22,0.0,0.0,96,0.00,CLR,,0.00,WeatherDisplay:10.37,2013-06-08 08:27:00,
2013-06-08 03:32:00,65.3,64.1,29.98,NNE,22,0.0,0.0,96,0.00,CLR,,0.00,WeatherDisplay:10.37,2013-06-08 08:32:00,
2013-06-08 03:37:00,65.3,64.1,29.98,NNE,22,0.0,0.0,96,0.00,CLR,,0.00,WeatherDisplay:10.37,2013-06-08 08:37:00,
2013-06-08 03:42:00,65.5,64.3,29.98,NNE,22,0.0,0.0,96,0.00,CLR,,0.00,WeatherDisplay:10.37,2013-06-08 08:42:00,
2013-06-08 03:47:00,65.5,64.3,29.98,NNE,22,0.0,0.0,96,0.00,CLR,,0.00,WeatherDisplay:10.37,2013-06-08 08:47:00,
2013-06-08 03:52:00,65.6,64.4,29.98,NNE,22,0.0,0.0,96,0.00,CLR,,0.00,WeatherDisplay:10.37,2013-06-08 08:52:00,
2013-06-08 03:57:00,65.6,64.4,29.98,NNE,22,0.0,0.0,96,0.00,CLR,,0.00,WeatherDisplay:10.37,2013-06-08 08:57:00,
2013-06-08 04:02:00,65.6,64.4,29.98,NNE,22,0.0,0.0,96,0.00,CLR,,0.00,WeatherDisplay:10.37,2013-06-08 09:02:00,
2013-06-08 04:07:00,65.6,64.4,29.98,NNE,22,0.0,0.0,96,0.00,CLR,,0.00,WeatherDisplay:10.37,2013-06-08 09:07:00,
2013-06-08 04:12:00,65.8,64.6,29.98,NNE,22,0.0,0.0,96,0.00,CLR,,0.00,WeatherDisplay:10.37,2013-06-08 09:12:00,
2013-06-08 04:17:00,65.8,64.6,29.98,NNE,22,0.0,0.0,96,0.00,CLR,,0.00,WeatherDisplay:10.37,2013-06-08 09:17:00,
2013-06-08 04:22:00,65.8,64.6,29.99,NNE,22,0.0,0.0,96,0.00,CLR,,0.00,WeatherDisplay:10.37,2013-06-08 09:22:00,
2013-06-08 04:27:00,65.8,64.6,29.99,NNE,22,0.0,0.0,96,0.00,CLR,,0.00,WeatherDisplay:10.37,2013-06-08 09:27:00,
2013-06-08 04:32:00,65.8,64.6,29.98,NNE,22,0.0,0.0,96,0.00,CLR,,0.00,WeatherDisplay:10.37,2013-06-08 09:32:00,
2013-06-08 04:37:00,65.6,64.4,29.98,NNE,22,0.0,0.0,96,0.00,CLR,,0.00,WeatherDisplay:10.37,2013-06-08 09:37:00,
2013-06-08 04:42:00,65.6,64.4,29.98,NNE,22,0.0,0.0,96,0.00,CLR,,0.00,WeatherDisplay:10.37,2013-06-08 09:42:00,
2013-06-08 04:47:00,65.5,64.3,29.98,NNE,22,0.0,0.0,96,0.00,CLR,,0.00,WeatherDisplay:10.37,2013-06-08 09:47:00,
2013-06-08 04:52:00,65.3,64.1,29.98,NNE,22,0.0,0.0,96,0.00,CLR,,0.00,WeatherDisplay:10.37,2013-06-08 09:52:00,
2013-06-08 04:57:00,65.2,64.0,29.98,NNE,22,0.0,0.0,96,0.00,CLR,,0.00,WeatherDisplay:10.37,2013-06-08 09:57:00,
2013-06-08 05:02:00,65.2,64.0,29.99,NNE,22,0.0,0.0,96,0.00,CLR,,0.00,WeatherDisplay:10.37,2013-06-08 10:02:00,
2013-06-08 05:07:00,65.2,64.0,29.99,NNE,22,0.0,0.0,96,0.00,CLR,,0.00,WeatherDisplay:10.37,2013-06-08 10:07:00,
2013-06-08 05:12:00,65.2,64.0,30.00,NNE,22,0.0,0.0,96,0.00,CLR,,0.00,WeatherDisplay:10.37,2013-06-08 10:12:00,
2013-06-08 05:17:00,65.2,64.0,30.00,NNE,22,0.0,0.0,96,0.00,CLR,,0.00,WeatherDisplay:10.37,2013-06-08 10:17:00,
2013-06-08 05:22:00,65.2,64.0,30.00,NNE,22,0.0,0.0,96,0.00,CLR,,0.00,WeatherDisplay:10.37,2013-06-08 10:22:00,
2013-06-08 05:27:00,65.2,64.0,30.01,NNE,22,0.0,0.0,96,0.00,CLR,,0.00,WeatherDisplay:10.37,2013-06-08 10:27:00,
2013-06-08 05:32:00,65.2,64.0,30.01,NNE,22,0.0,0.0,96,0.00,CLR,,0.00,WeatherDisplay:10.37,2013-06-08 10:32:00,
2013-06-08 05:37:00,65.3,64.1,30.01,NNE,22,0.0,0.0,96,0.00,CLR,,0.00,WeatherDisplay:10.37,2013-06-08 10:37:00,
2013-06-08 05:42:00,65.3,64.1,30.01,NNE,22,0.0,0.0,96,0.00,CLR,,0.00,WeatherDisplay:10.37,2013-06-08 10:42:00,
2013-06-08 05:47:00,65.5,64.3,30.01,NNE,22,0.0,0.0,96,0.00,CLR,,0.00,WeatherDisplay:10.37,2013-06-08 10:47:00,
2013-06-08 05:52:00,65.6,64.4,30.01,NNE,22,0.0,0.0,96,0.00,CLR,,0.00,WeatherDisplay:10.37,2013-06-08 10:52:00,
2013-06-08 05:57:00,65.6,64.4,30.02,NNE,22,0.0,0.0,96,0.00,CLR,,0.00,WeatherDisplay:10.37,2013-06-08 10:57:00,
2013-06-08 06:02:00,65.8,64.6,30.02,NNE,22,0.0,0.0,96,0.00,CLR,,0.00,WeatherDisplay:10.37,2013-06-08 11:02:00,
2013-06-08 06:07:00,65.6,64.4,30.02,NNE,22,0.0,0.0,96,0.00,CLR,,0.00,WeatherDisplay:10.37,2013-06-08 11:07:00,
2013-06-08 06:12:00,65.5,64.3,30.03,NNE,22,0.0,0.0,96,0.00,CLR,,0.00,WeatherDisplay:10.37,2013-06-08 11:12:00,
2013-06-08 06:17:00,65.3,64.1,30.03,NNE,22,0.0,0.0,96,0.00,CLR,,0.00,WeatherDisplay:10.37,2013-06-08 11:17:00,
2013-06-08 06:22:00,65.3,64.1,30.03,NNE,22,0.0,0.0,96,0.00,CLR,,0.00,WeatherDisplay:10.37,2013-06-08 11:22:00,
2013-06-08 06:27:00,65.5,64.3,30.03,NNE,22,0.0,0.0,96,0.00,CLR,,0.00,WeatherDisplay:10.37,2013-06-08 11:27:00,
2013-06-08 06:32:00,65.6,64.4,30.03,NNE,22,0.0,0.0,96,0.00,CLR,,0.00,WeatherDisplay:10.37,2013-06-08 11:32:00,
2013-06-08 06:37:00,65.6,64.4,30.03,NNE,22,0.0,0.0,96,0.00,CLR,,0.00,WeatherDisplay:10.37,2013-06-08 11:37:00,
2013-06-08 06:42:00,65.5,64.3,30.03,NNE,22,0.0,0.0,96,0.00,CLR,,0.00,WeatherDisplay:10.37,2013-06-08 11:42:00,
2013-06-08 06:47:00,65.6,64.4,30.03,NNE,22,0.0,0.0,96,0.00,CLR,,0.00,WeatherDisplay:10.37,2013-06-08 11:47:00,
2013-06-08 06:52:00,66.0,64.8,30.04,NNE,22,0.0,0.0,96,0.00,CLR,,0.00,WeatherDisplay:10.37,2013-06-08 11:52:00,
2013-06-08 06:57:00,66.1,64.9,30.04,NNE,22,1.1,0.0,96,0.00,CLR,,0.00,WeatherDisplay:10.37,2013-06-08 11:57:00,
2013-06-08 07:03:00,66.1,64.9,30.04,WSW,249,1.1,0.0,96,0.00,CLR,,0.00,WeatherDisplay:10.37,2013-06-08 12:03:00,
2013-06-08 07:08:00,66.1,64.9,30.04,WSW,249,0.0,0.0,96,0.00,CLR,,0.00,WeatherDisplay:10.37,2013-06-08 12:08:00,
2013-06-08 07:13:00,66.0,64.8,30.04,WSW,249,2.3,2.3,96,0.00,CLR,,0.00,WeatherDisplay:10.37,2013-06-08 12:13:00,
2013-06-08 07:18:00,66.1,64.9,30.04,WSW,249,0.0,0.0,96,0.00,CLR,,0.00,WeatherDisplay:10.37,2013-06-08 12:18:00,
2013-06-08 07:23:00,66.3,65.1,30.04,WSW,249,0.0,0.0,96,0.00,CLR,,0.00,WeatherDisplay:10.37,2013-06-08 12:23:00,
2013-06-08 07:28:00,66.4,65.2,30.04,WSW,249,0.0,0.0,96,0.00,CLR,,0.00,WeatherDisplay:10.37,2013-06-08 12:28:00,
2013-06-08 07:33:00,66.6,65.1,30.04,WSW,249,0.0,0.0,95,0.00,CLR,,0.00,WeatherDisplay:10.37,2013-06-08 12:33:00,
2013-06-08 07:38:00,66.8,65.3,30.04,WSW,249,0.0,0.0,95,0.00,CLR,,0.00,WeatherDisplay:10.37,2013-06-08 12:38:00,
2013-06-08 07:43:00,66.9,65.1,30.04,WSW,249,0.0,0.0,94,0.00,CLR,,0.00,WeatherDisplay:10.37,2013-06-08 12:43:00,
2013-06-08 07:48:00,66.9,65.1,30.04,WSW,249,0.0,0.0,94,0.00,CLR,,0.00,WeatherDisplay:10.37,2013-06-08 12:48:00,
2013-06-08 07:53:00,67.1,65.0,30.05,WSW,249,0.0,0.0,93,0.00,CLR,,0.00,WeatherDisplay:10.37,2013-06-08 12:53:00,
2013-06-08 07:58:00,67.1,65.0,30.05,WSW,249,0.0,0.0,93,0.00,CLR,,0.00,WeatherDisplay:10.37,2013-06-08 12:58:00,
2013-06-08 08:03:00,67.3,64.9,30.05,WSW,249,0.0,0.0,92,0.00,CLR,,0.00,WeatherDisplay:10.37,2013-06-08 13:03:00,
2013-06-08 08:08:00,67.6,65.2,30.06,WSW,249,0.0,0.1,92,0.00,CLR,,0.00,WeatherDisplay:10.37,2013-06-08 13:08:00,
2013-06-08 08:13:00,67.9,65.5,30.06,WSW,249,0.0,0.0,92,0.00,CLR,,0.00,WeatherDisplay:10.37,2013-06-08 13:13:00,
2013-06-08 08:18:00,68.1,65.7,30.06,WSW,249,0.0,0.0,92,0.00,CLR,,0.00,WeatherDisplay:10.37,2013-06-08 13:18:00,
2013-06-08 08:23:00,68.3,65.6,30.06,WSW,249,0.0,0.0,91,0.00,CLR,,0.00,WeatherDisplay:10.37,2013-06-08 13:23:00,
2013-06-08 08:28:00,68.6,65.9,30.06,WSW,249,0.0,0.0,91,0.00,CLR,,0.00,WeatherDisplay:10.37,2013-06-08 13:28:00,
2013-06-08 08:33:00,68.4,65.0,30.07,SW,226,0.0,0.0,89,0.00,CLR,,0.00,WeatherDisplay:10.37,2013-06-08 13:33:00,
2013-06-08 08:38:00,68.6,65.2,30.07,SW,226,0.0,0.0,89,0.00,CLR,,0.00,WeatherDisplay:10.37,2013-06-08 13:38:00,
2013-06-08 08:43:00,68.8,65.4,30.07,SW,226,0.0,0.0,89,0.00,CLR,,0.00,WeatherDisplay:10.37,2013-06-08 13:43:00,
2013-06-08 08:48:00,69.1,65.4,30.07,SW,226,0.0,0.0,88,0.00,CLR,,0.00,WeatherDisplay:10.37,2013-06-08 13:48:00,
2013-06-08 08:53:00,69.4,65.7,30.08,SW,226,0.0,0.0,88,0.00,CLR,,0.00,WeatherDisplay:10.37,2013-06-08 13:53:00,
2013-06-08 08:58:00,69.6,65.6,30.08,SW,226,0.0,0.0,87,0.00,CLR,,0.00,WeatherDisplay:10.37,2013-06-08 13:58:00,
2013-06-08 09:03:00,69.6,65.2,30.08,SW,226,0.0,0.0,86,0.00,CLR,,0.00,WeatherDisplay:10.37,2013-06-08 14:03:00,
2013-06-08 09:08:00,69.8,65.4,30.08,SW,226,0.0,0.0,86,0.00,CLR,,0.00,WeatherDisplay:10.37,2013-06-08 14:08:00,
2013-06-08 09:13:00,69.9,65.2,30.08,SW,226,0.0,0.0,85,0.00,CLR,,0.00,WeatherDisplay:10.37,2013-06-08 14:13:00,
2013-06-08 09:18:00,70.3,65.6,30.08,SW,226,0.0,0.0,85,0.00,CLR,,0.00,WeatherDisplay:10.37,2013-06-08 14:18:00,
2013-06-08 09:23:00,70.6,65.9,30.08,SW,226,0.0,0.0,85,0.00,CLR,,0.00,WeatherDisplay:10.37,2013-06-08 14:23:00,
2013-06-08 09:28:00,70.9,66.2,30.08,SW,226,0.0,0.0,85,0.00,CLR,,0.00,WeatherDisplay:10.37,2013-06-08 14:28:00,
2013-06-08 09:33:00,71.5,66.1,30.08,SW,226,0.0,0.0,83,0.00,CLR,,0.00,WeatherDisplay:10.37,2013-06-08 14:33:00,
2013-06-08 09:38:00,71.8,66.0,30.08,NNW,338,0.0,0.0,82,0.00,CLR,,0.00,WeatherDisplay:10.37,2013-06-08 14:38:00,
2013-06-08 09:43:00,72.0,65.8,30.08,NE,55,0.0,0.0,81,0.00,CLR,,0.00,WeatherDisplay:10.37,2013-06-08 14:43:00,
2013-06-08 09:48:00,72.7,66.5,30.08,NE,55,1.1,0.0,81,0.00,CLR,,0.00,WeatherDisplay:10.37,2013-06-08 14:48:00,
2013-06-08 09:53:00,73.5,68.4,30.07,NE,55,0.0,0.0,84,0.00,CLR,,0.00,WeatherDisplay:10.37,2013-06-08 14:53:00,
2013-06-08 09:58:00,73.7,66.8,30.08,South,189,1.1,0.0,79,0.00,CLR,,0.00,WeatherDisplay:10.37,2013-06-08 14:58:00,
2013-06-08 10:03:00,74.6,67.7,30.07,South,189,0.0,0.0,79,0.00,CLR,,0.00,WeatherDisplay:10.37,2013-06-08 15:03:00,
2013-06-08 10:08:00,74.9,67.6,30.07,ENE,61,0.0,0.0,78,0.00,CLR,,0.00,WeatherDisplay:10.37,2013-06-08 15:08:00,
2013-06-08 10:13:00,75.4,67.7,30.07,SW,234,0.0,0.0,77,0.00,CLR,,0.00,WeatherDisplay:10.37,2013-06-08 15:13:00,
2013-06-08 10:18:00,75.6,67.5,30.08,South,171,0.0,0.0,76,0.00,CLR,,0.00,WeatherDisplay:10.37,2013-06-08 15:18:00,
2013-06-08 10:23:00,76.1,67.6,30.08,WSW,252,0.0,0.0,75,0.00,CLR,,0.00,WeatherDisplay:10.37,2013-06-08 15:23:00,
2013-06-08 10:28:00,76.5,67.6,30.08,SE,144,1.1,0.0,74,0.00,CLR,,0.00,WeatherDisplay:10.37,2013-06-08 15:28:00,
2013-06-08 10:33:00,76.5,66.8,30.08,SSW,205,1.1,0.0,72,0.00,CLR,,0.00,WeatherDisplay:10.37,2013-06-08 15:33:00,
2013-06-08 10:38:00,76.5,67.2,30.08,ESE,104,1.1,1.1,73,0.00,CLR,,0.00,WeatherDisplay:10.37,2013-06-08 15:38:00,
2013-06-08 10:43:00,76.5,66.4,30.08,ESE,103,1.1,0.0,71,0.00,CLR,,0.00,WeatherDisplay:10.37,2013-06-08 15:43:00,
2013-06-08 10:48:00,77.0,66.9,30.09,ESE,118,1.1,0.0,71,0.00,CLR,,0.00,WeatherDisplay:10.37,2013-06-08 15:48:00,
2013-06-08 10:53:00,77.6,66.6,30.08,South,188,1.1,1.1,69,0.00,CLR,,0.00,WeatherDisplay:10.37,2013-06-08 15:53:00,
2013-06-08 10:58:00,77.6,67.0,30.08,SW,214,1.0,0.0,70,0.00,CLR,,0.00,WeatherDisplay:10.37,2013-06-08 15:58:00,
2013-06-08 11:03:00,77.7,68.0,30.08,SW,222,0.0,0.0,72,0.00,CLR,,0.00,WeatherDisplay:10.37,2013-06-08 16:03:00,
2013-06-08 11:08:00,78.1,67.1,30.08,NE,55,1.1,0.0,69,0.00,CLR,,0.00,WeatherDisplay:10.37,2013-06-08 16:08:00,
2013-06-08 11:13:00,78.3,68.1,30.08,NE,55,0.0,0.0,71,0.00,CLR,,0.00,WeatherDisplay:10.37,2013-06-08 16:13:00,
2013-06-08 11:18:00,78.1,67.5,30.08,NE,48,5.0,5.0,70,0.00,CLR,,0.00,WeatherDisplay:10.37,2013-06-08 16:18:00,
2013-06-08 11:23:00,77.9,67.3,30.09,NE,47,0.0,0.0,70,0.00,CLR,,0.00,WeatherDisplay:10.37,2013-06-08 16:23:00,
2013-06-08 11:28:00,77.6,67.0,30.08,NE,49,1.1,0.0,70,0.00,CLR,,0.00,WeatherDisplay:10.37,2013-06-08 16:28:00,
2013-06-08 11:33:00,77.6,68.3,30.08,NE,36,0.0,0.0,73,0.00,CLR,,0.00,WeatherDisplay:10.37,2013-06-08 16:33:00,
2013-06-08 11:38:00,78.1,67.5,30.09,NE,36,0.0,0.0,70,0.00,CLR,,0.00,WeatherDisplay:10.37,2013-06-08 16:38:00,
2013-06-08 11:43:00,77.9,65.6,30.08,ENE,74,4.0,4.0,66,0.00,CLR,,0.00,WeatherDisplay:10.37,2013-06-08 16:43:00,
2013-06-08 11:48:00,78.3,66.0,30.08,South,190,3.5,3.5,66,0.00,CLR,,0.00,WeatherDisplay:10.37,2013-06-08 16:48:00,
2013-06-08 11:53:00,78.5,67.1,30.08,WNW,290,0.0,0.0,68,0.00,CLR,,0.00,WeatherDisplay:10.37,2013-06-08 16:53:00,
2013-06-08 11:58:00,78.6,66.7,30.08,WNW,290,1.1,0.0,67,0.00,CLR,,0.00,WeatherDisplay:10.37,2013-06-08 16:58:00,
2013-06-08 12:03:00,79.4,65.7,30.08,WSW,255,4.0,4.0,63,0.00,CLR,,0.00,WeatherDisplay:10.37,2013-06-08 17:03:00,
2013-06-08 12:08:00,79.9,65.2,30.08,SSW,205,0.0,0.1,61,0.00,CLR,,0.00,WeatherDisplay:10.37,2013-06-08 17:08:00,
2013-06-08 12:13:00,80.5,65.3,30.08,West,274,3.5,3.5,60,0.00,CLR,,0.00,WeatherDisplay:10.37,2013-06-08 17:13:00,
2013-06-08 12:18:00,80.9,67.1,30.08,West,273,1.1,0.0,63,0.00,CLR,,0.00,WeatherDisplay:10.37,2013-06-08 17:18:00,
2013-06-08 12:23:00,81.2,67.9,30.07,SW,225,1.1,1.1,64,0.00,CLR,,0.00,WeatherDisplay:10.37,2013-06-08 17:23:00,
2013-06-08 12:28:00,81.6,66.4,30.07,ESE,122,1.1,0.0,60,0.00,CLR,,0.00,WeatherDisplay:10.37,2013-06-08 17:28:00,
2013-06-08 12:33:00,81.8,65.6,30.07,WSW,240,1.1,1.1,58,0.00,CLR,,0.00,WeatherDisplay:10.37,2013-06-08 17:33:00,
2013-06-08 12:38:00,81.8,67.5,30.07,NNE,32,1.1,0.0,62,0.00,CLR,,0.00,WeatherDisplay:10.37,2013-06-08 17:38:00,
2013-06-08 12:43:00,81.2,64.5,30.07,NE,34,0.0,0.0,57,0.00,CLR,,0.00,WeatherDisplay:10.37,2013-06-08 17:43:00,
2013-06-08 12:48:00,81.1,65.9,30.07,SSW,209,0.0,0.0,60,0.00,CLR,,0.00,WeatherDisplay:10.37,2013-06-08 17:48:00,
2013-06-08 12:53:00,80.9,64.7,30.07,SSW,209,0.0,0.0,58,0.00,CLR,,0.00,WeatherDisplay:10.37,2013-06-08 17:53:00,
2013-06-08 12:58:00,80.9,64.7,30.07,SSW,209,0.0,0.0,58,0.00,CLR,,0.00,WeatherDisplay:10.37,2013-06-08 17:58:00,
2013-06-08 13:03:00,80.7,65.0,30.07,South,188,1.1,0.0,59,0.00,CLR,,0.00,WeatherDisplay:10.37,2013-06-08 18:03:00,
2013-06-08 13:08:00,80.1,64.0,30.07,South,191,0.0,0.0,58,0.00,CLR,,0.00,WeatherDisplay:10.37,2013-06-08 18:08:00,
2013-06-08 13:13:00,79.8,65.2,30.07,South,191,0.0,0.0,61,0.00,CLR,,0.00,WeatherDisplay:10.37,2013-06-08 18:13:00,
2013-06-08 13:18:00,79.6,66.3,30.07,South,191,0.0,0.0,64,0.00,CLR,,0.00,WeatherDisplay:10.37,2013-06-08 18:18:00,
2013-06-08 13:23:00,79.4,65.7,30.07,South,187,0.0,0.0,63,0.00,CLR,,0.00,WeatherDisplay:10.37,2013-06-08 18:23:00,
2013-06-08 13:28:00,79.2,66.0,30.07,South,188,1.1,0.0,64,0.00,CLR,,0.00,WeatherDisplay:10.37,2013-06-08 18:28:00,
2013-06-08 13:33:00,79.0,65.8,30.07,South,188,0.0,0.0,64,0.00,CLR,,0.00,WeatherDisplay:10.37,2013-06-08 18:33:00,
2013-06-08 13:38:00,79.0,65.3,30.07,South,188,0.0,0.0,63,0.00,CLR,,0.00,WeatherDisplay:10.37,2013-06-08 18:38:00,
2013-06-08 13:43:00,79.4,67.9,30.07,South,188,0.0,0.0,68,0.00,CLR,,0.00,WeatherDisplay:10.37,2013-06-08 18:43:00,
2013-06-08 13:48:00,79.9,65.7,30.06,South,187,0.0,0.0,62,0.00,CLR,,0.00,WeatherDisplay:10.37,2013-06-08 18:48:00,
2013-06-08 13:53:00,81.1,64.9,30.06,South,188,1.1,1.1,58,0.00,CLR,,0.00,WeatherDisplay:10.37,2013-06-08 18:53:00,
2013-06-08 13:58:00,81.6,66.4,30.05,WNW,303,1.1,1.1,60,0.00,CLR,,0.00,WeatherDisplay:10.37,2013-06-08 18:58:00,
2013-06-08 14:03:00,82.2,64.9,30.05,SW,229,0.0,0.2,56,0.00,CLR,,0.00,WeatherDisplay:10.37,2013-06-08 19:03:00,
2013-06-08 14:08:00,82.6,66.8,30.05,SSW,192,1.0,0.0,59,0.00,CLR,,0.00,WeatherDisplay:10.37,2013-06-08 19:08:00,
2013-06-08 14:13:00,83.0,64.1,30.05,SSW,211,0.0,0.0,53,0.00,CLR,,0.00,WeatherDisplay:10.37,2013-06-08 19:13:00,
2013-06-08 14:18:00,83.2,64.8,30.05,SSE,153,1.1,1.1,54,0.00,CLR,,0.00,WeatherDisplay:10.37,2013-06-08 19:18:00,
2013-06-08 14:23:00,83.4,63.4,30.05,SW,226,3.5,3.5,51,0.00,CLR,,0.00,WeatherDisplay:10.37,2013-06-08 19:23:00,
2013-06-08 14:28:00,83.4,63.9,30.05,SW,226,0.0,0.0,52,0.00,CLR,,0.00,WeatherDisplay:10.37,2013-06-08 19:28:00,
2013-06-08 14:33:00,83.6,63.6,30.05,West,261,1.1,0.0,51,0.00,CLR,,0.00,WeatherDisplay:10.37,2013-06-08 19:33:00,
2013-06-08 14:38:00,83.8,64.8,30.05,SSE,163,0.0,0.0,53,0.00,CLR,,0.00,WeatherDisplay:10.37,2013-06-08 19:38:00,
2013-06-08 14:43:00,83.8,63.2,30.05,ENE,76,1.1,0.0,50,0.00,CLR,,0.00,WeatherDisplay:10.37,2013-06-08 19:43:00,
2013-06-08 14:48:00,83.6,62.4,30.05,SSW,200,1.1,1.1,49,0.00,CLR,,0.00,WeatherDisplay:10.37,2013-06-08 19:48:00,
2013-06-08 14:53:00,83.6,63.0,30.05,SSW,199,1.0,0.0,50,0.00,CLR,,0.00,WeatherDisplay:10.37,2013-06-08 19:53:00,
2013-06-08 14:58:00,83.6,61.8,30.05,NW,309,1.1,1.1,48,0.00,CLR,,0.00,WeatherDisplay:10.37,2013-06-08 19:58:00,
2013-06-08 15:03:00,83.8,62.0,30.05,West,268,0.0,0.0,48,0.00,CLR,,0.00,WeatherDisplay:10.37,2013-06-08 20:03:00,
2013-06-08 15:08:00,84.0,62.8,30.05,SE,146,3.5,3.5,49,0.00,CLR,,0.00,WeatherDisplay:10.37,2013-06-08 20:08:00,
2013-06-08 15:13:00,84.0,61.6,30.05,SSW,198,1.1,1.1,47,0.00,CLR,,0.00,WeatherDisplay:10.37,2013-06-08 20:13:00,
2013-06-08 15:18:00,84.3,64.8,30.05,SW,234,0.0,0.0,52,0.00,CLR,,0.00,WeatherDisplay:10.37,2013-06-08 20:18:00,
2013-06-08 15:23:00,84.5,62.7,30.05,SW,230,0.0,0.0,48,0.00,CLR,,0.00,WeatherDisplay:10.37,2013-06-08 20:23:00,
2013-06-08 15:28:00,84.5,62.7,30.05,SW,234,3.5,3.5,48,0.00,CLR,,0.00,WeatherDisplay:10.37,2013-06-08 20:28:00,
2013-06-08 15:33:00,84.0,61.6,30.05,North,360,1.1,0.0,47,0.00,CLR,,0.00,WeatherDisplay:10.37,2013-06-08 20:33:00,
2013-06-08 15:38:00,83.4,62.2,30.05,WSW,245,0.0,0.0,49,0.00,CLR,,0.00,WeatherDisplay:10.37,2013-06-08 20:38:00,
2013-06-08 15:43:00,83.0,62.4,30.05,SW,230,3.5,3.5,50,0.00,CLR,,0.00,WeatherDisplay:10.37,2013-06-08 20:43:00,
2013-06-08 15:48:00,82.6,62.6,30.05,West,261,0.0,0.0,51,0.00,CLR,,0.00,WeatherDisplay:10.37,2013-06-08 20:48:00,
2013-06-08 15:53:00,82.6,62.6,30.05,South,175,1.1,1.1,51,0.00,CLR,,0.00,WeatherDisplay:10.37,2013-06-08 20:53:00,
2013-06-08 15:58:00,82.6,63.2,30.05,South,185,1.1,0.0,52,0.00,CLR,,0.00,WeatherDisplay:10.37,2013-06-08 20:58:00,
2013-06-08 16:03:00,82.8,62.8,30.06,WSW,250,3.5,0.0,51,0.00,CLR,,0.00,WeatherDisplay:10.37,2013-06-08 21:03:00,
2013-06-08 16:08:00,83.0,61.9,30.06,WSW,252,1.1,1.1,49,0.00,CLR,,0.00,WeatherDisplay:10.37,2013-06-08 21:08:00,
2013-06-08 16:13:00,83.0,63.0,30.06,WSW,252,0.0,0.0,51,0.00,CLR,,0.00,WeatherDisplay:10.37,2013-06-08 21:13:00,
2013-06-08 16:18:00,82.6,63.2,30.05,SSW,209,4.6,4.6,52,0.00,CLR,,0.00,WeatherDisplay:10.37,2013-06-08 21:18:00,
2013-06-08 16:23:00,82.4,63.0,30.06,WNW,291,0.0,0.0,52,0.00,CLR,,0.00,WeatherDisplay:10.37,2013-06-08 21:23:00,
2013-06-08 16:28:00,82.4,63.0,30.06,SE,132,1.1,1.1,52,0.00,CLR,,0.00,WeatherDisplay:10.37,2013-06-08 21:28:00,
2013-06-08 16:33:00,82.2,62.8,30.06,WSW,238,1.1,1.1,52,0.00,CLR,,0.00,WeatherDisplay:10.37,2013-06-08 21:33:00,
2013-06-08 16:38:00,82.2,62.3,30.06,WSW,246,0.0,0.0,51,0.00,CLR,,0.00,WeatherDisplay:10.37,2013-06-08 21:38:00,
2013-06-08 16:43:00,82.2,61.7,30.06,SW,220,0.0,0.0,50,0.00,CLR,,0.00,WeatherDisplay:10.37,2013-06-08 21:43:00,
2013-06-08 16:48:00,82.0,62.1,30.06,WSW,248,1.1,1.1,51,0.00,CLR,,0.00,WeatherDisplay:10.37,2013-06-08 21:48:00,
2013-06-08 16:53:00,81.8,63.0,30.06,WSW,239,0.0,0.0,53,0.00,CLR,,0.00,WeatherDisplay:10.37,2013-06-08 21:53:00,
2013-06-08 16:58:00,81.6,62.3,30.06,WSW,239,0.0,0.0,52,0.00,CLR,,0.00,WeatherDisplay:10.37,2013-06-08 21:58:00,
2013-06-08 17:03:00,81.6,62.3,30.06,WSW,238,1.1,1.1,52,0.00,CLR,,0.00,WeatherDisplay:10.37,2013-06-08 22:03:00,
2013-06-08 17:08:00,81.6,62.8,30.05,South,171,3.5,3.5,53,0.00,CLR,,0.00,WeatherDisplay:10.37,2013-06-08 22:08:00,
2013-06-08 17:13:00,81.6,62.8,30.05,South,185,1.1,1.1,53,0.00,CLR,,0.00,WeatherDisplay:10.37,2013-06-08 22:13:00,
2013-06-08 17:18:00,81.4,62.6,30.06,South,185,0.0,0.0,53,0.00,CLR,,0.00,WeatherDisplay:10.37,2013-06-08 22:18:00,
2013-06-08 17:23:00,81.4,63.2,30.06,South,185,0.0,0.0,54,0.00,CLR,,0.00,WeatherDisplay:10.37,2013-06-08 22:23:00,
2013-06-08 17:28:00,81.2,64.0,30.06,South,185,0.0,0.0,56,0.00,CLR,,0.00,WeatherDisplay:10.37,2013-06-08 22:28:00,
2013-06-08 17:33:00,81.1,63.4,30.06,South,185,0.0,0.0,55,0.00,CLR,,0.00,WeatherDisplay:10.37,2013-06-08 22:33:00,
2013-06-08 17:38:00,80.9,64.2,30.05,South,185,0.0,0.0,57,0.00,CLR,,0.00,WeatherDisplay:10.37,2013-06-08 22:38:00,
2013-06-08 17:43:00,80.5,65.3,30.05,South,185,1.1,0.0,60,0.00,CLR,,0.00,WeatherDisplay:10.37,2013-06-08 22:43:00,
2013-06-08 17:48:00,80.1,66.4,30.05,South,185,0.0,0.0,63,0.00,CLR,,0.00,WeatherDisplay:10.37,2013-06-08 22:48:00,
2013-06-08 17:53:00,79.8,66.1,30.06,South,185,0.0,0.0,63,0.00,CLR,,0.00,WeatherDisplay:10.37,2013-06-08 22:53:00,
2013-06-08 17:58:00,79.4,64.8,30.05,South,185,0.0,0.0,61,0.00,CLR,,0.00,WeatherDisplay:10.37,2013-06-08 22:58:00,
2013-06-08 18:03:00,79.4,65.2,30.06,South,185,0.0,0.0,62,0.00,CLR,,0.00,WeatherDisplay:10.37,2013-06-08 23:03:00,
2013-06-08 18:08:00,79.4,64.3,30.06,South,185,0.0,0.0,60,0.00,CLR,,0.00,WeatherDisplay:10.37,2013-06-08 23:08:00,
2013-06-08 18:13:00,79.4,65.2,30.06,South,185,0.0,0.0,62,0.00,CLR,,0.00,WeatherDisplay:10.37,2013-06-08 23:13:00,
2013-06-08 18:18:00,79.4,64.3,30.06,South,185,0.0,0.0,60,0.00,CLR,,0.00,WeatherDisplay:10.37,2013-06-08 23:18:00,
2013-06-08 18:23:00,79.4,67.0,30.06,South,185,0.0,0.0,66,0.00,CLR,,0.00,WeatherDisplay:10.37,2013-06-08 23:23:00,
2013-06-08 18:28:00,79.2,67.3,30.06,South,185,0.0,0.0,67,0.00,CLR,,0.00,WeatherDisplay:10.37,2013-06-08 23:28:00,
2013-06-08 18:33:00,78.8,66.9,30.07,South,185,0.0,0.0,67,0.00,CLR,,0.00,WeatherDisplay:10.37,2013-06-08 23:33:00,
2013-06-08 18:38:00,78.5,66.2,30.07,South,185,0.0,0.0,66,0.00,CLR,,0.00,WeatherDisplay:10.37,2013-06-08 23:38:00,
2013-06-08 18:43:00,78.3,66.0,30.07,South,185,0.0,0.0,66,0.00,CLR,,0.00,WeatherDisplay:10.37,2013-06-08 23:43:00,
2013-06-08 18:48:00,78.1,66.7,30.07,South,185,0.0,0.0,68,0.00,CLR,,0.00,WeatherDisplay:10.37,2013-06-08 23:48:00,
2013-06-08 18:53:00,77.6,66.2,30.06,South,185,0.0,0.0,68,0.00,CLR,,0.00,WeatherDisplay:10.37,2013-06-08 23:53:00,
2013-06-08 18:58:00,77.2,66.7,30.07,South,185,0.0,0.0,70,0.00,CLR,,0.00,WeatherDisplay:10.37,2013-06-08 23:58:00,
2013-06-08 19:03:00,76.7,65.3,30.07,South,185,0.0,0.0,68,0.00,CLR,,0.00,WeatherDisplay:10.37,2013-06-09 00:03:00,
2013-06-08 19:08:00,76.3,66.2,30.07,South,185,0.0,0.0,71,0.00,CLR,,0.00,WeatherDisplay:10.37,2013-06-09 00:08:00,
2013-06-08 19:13:00,75.8,66.1,30.07,South,185,0.0,0.0,72,0.00,CLR,,0.00,WeatherDisplay:10.37,2013-06-09 00:13:00,
2013-06-08 19:18:00,75.6,66.3,30.07,South,185,0.0,0.0,73,0.00,CLR,,0.00,WeatherDisplay:10.37,2013-06-09 00:18:00,
2013-06-08 19:23:00,75.1,66.2,30.07,South,185,0.0,0.0,74,0.00,CLR,,0.00,WeatherDisplay:10.37,2013-06-09 00:23:00,
2013-06-08 19:28:00,74.7,66.2,30.07,South,185,0.0,0.0,75,0.00,CLR,,0.00,WeatherDisplay:10.37,2013-06-09 00:28:00,
2013-06-08 19:33:00,74.4,66.3,30.08,South,185,0.0,0.0,76,0.00,CLR,,0.00,WeatherDisplay:10.37,2013-06-09 00:33:00,
2013-06-08 19:38:00,73.9,65.9,30.08,South,185,0.0,0.0,76,0.00,CLR,,0.00,WeatherDisplay:10.37,2013-06-09 00:38:00,
2013-06-08 19:43:00,73.5,65.8,30.08,South,185,0.0,0.0,77,0.00,CLR,,0.00,WeatherDisplay:10.37,2013-06-09 00:43:00,
2013-06-08 19:48:00,73.2,65.9,30.08,South,185,0.0,0.0,78,0.00,CLR,,0.00,WeatherDisplay:10.37,2013-06-09 00:48:00,
2013-06-08 19:53:00,72.8,65.9,30.09,South,185,0.0,0.0,79,0.00,CLR,,0.00,WeatherDisplay:10.37,2013-06-09 00:53:00,
2013-06-08 19:58:00,72.7,65.4,30.09,South,185,0.0,0.0,78,0.00,CLR,,0.00,WeatherDisplay:10.37,2013-06-09 00:58:00,
2013-06-08 20:03:00,72.3,65.4,30.09,South,185,0.0,0.0,79,0.00,CLR,,0.00,WeatherDisplay:10.37,2013-06-09 01:03:00,
2013-06-08 20:08:00,72.0,65.1,30.09,South,185,0.0,0.0,79,0.00,CLR,,0.00,WeatherDisplay:10.37,2013-06-09 01:08:00,
2013-06-08 20:13:00,71.6,65.1,30.09,South,185,0.0,0.0,80,0.00,CLR,,0.00,WeatherDisplay:10.37,2013-06-09 01:13:00,
2013-06-08 20:18:00,71.5,65.7,30.09,South,185,0.0,0.0,82,0.00,CLR,,0.00,WeatherDisplay:10.37,2013-06-09 01:18:00,
2013-06-08 20:23:00,71.1,65.3,30.09,South,185,0.0,0.0,82,0.00,CLR,,0.00,WeatherDisplay:10.37,2013-06-09 01:23:00,
2013-06-08 20:28:00,70.9,65.1,30.09,South,185,0.0,0.0,82,0.00,CLR,,0.00,WeatherDisplay:10.37,2013-06-09 01:28:00,
2013-06-08 20:33:00,70.8,65.0,30.09,South,185,0.0,0.0,82,0.00,CLR,,0.00,WeatherDisplay:10.37,2013-06-09 01:33:00,
2013-06-08 20:38:00,70.4,65.0,30.09,South,185,0.0,0.0,83,0.00,CLR,,0.00,WeatherDisplay:10.37,2013-06-09 01:38:00,
2013-06-08 20:43:00,70.3,64.9,30.09,South,185,0.0,0.0,83,0.00,CLR,,0.00,WeatherDisplay:10.37,2013-06-09 01:43:00,
2013-06-08 20:48:00,70.1,64.7,30.10,South,185,0.0,0.0,83,0.00,CLR,,0.00,WeatherDisplay:10.37,2013-06-09 01:48:00,
2013-06-08 20:53:00,69.9,64.8,30.10,South,185,0.0,0.0,84,0.00,CLR,,0.00,WeatherDisplay:10.37,2013-06-09 01:53:00,
2013-06-08 20:58:00,69.8,64.7,30.10,South,185,0.0,0.0,84,0.00,CLR,,0.00,WeatherDisplay:10.37,2013-06-09 01:58:00,
2013-06-08 21:03:00,69.6,64.9,30.10,South,185,0.0,0.0,85,0.00,CLR,,0.00,WeatherDisplay:10.37,2013-06-09 02:03:00,
2013-06-08 21:08:00,69.4,64.7,30.10,South,185,0.0,0.0,85,0.00,CLR,,0.00,WeatherDisplay:10.37,2013-06-09 02:08:00,
2013-06-08 21:13:00,69.3,64.6,30.10,South,185,0.0,0.0,85,0.00,CLR,,0.00,WeatherDisplay:10.37,2013-06-09 02:13:00,
2013-06-08 21:18:00,69.1,64.4,30.11,South,185,0.0,0.0,85,0.00,CLR,,0.00,WeatherDisplay:10.37,2013-06-09 02:18:00,
2013-06-08 21:23:00,68.9,64.5,30.11,South,185,0.0,0.0,86,0.00,CLR,,0.00,WeatherDisplay:10.37,2013-06-09 02:23:00,
2013-06-08 21:28:00,68.8,64.4,30.11,South,185,0.0,0.0,86,0.00,CLR,,0.00,WeatherDisplay:10.37,2013-06-09 02:28:00,
2013-06-08 21:33:00,68.8,64.8,30.12,South,185,0.0,0.0,87,0.00,CLR,,0.00,WeatherDisplay:10.37,2013-06-09 02:33:00,
2013-06-08 21:38:00,68.6,64.6,30.12,South,185,0.0,0.0,87,0.00,CLR,,0.00,WeatherDisplay:10.37,2013-06-09 02:38:00,
2013-06-08 21:43:00,68.4,64.4,30.12,South,185,0.0,0.0,87,0.00,CLR,,0.00,WeatherDisplay:10.37,2013-06-09 02:43:00,
2013-06-08 21:48:00,68.4,64.4,30.12,South,185,0.0,0.0,87,0.00,CLR,,0.00,WeatherDisplay:10.37,2013-06-09 02:48:00,
2013-06-08 21:53:00,68.3,64.3,30.12,South,185,0.0,0.0,87,0.00,CLR,,0.00,WeatherDisplay:10.37,2013-06-09 02:53:00,
2013-06-08 21:58:00,68.3,64.3,30.12,South,185,0.0,0.0,87,0.00,CLR,,0.00,WeatherDisplay:10.37,2013-06-09 02:58:00,
2013-06-08 22:03:00,68.1,64.4,30.12,South,185,0.0,0.0,88,0.00,CLR,,0.00,WeatherDisplay:10.37,2013-06-09 03:03:00,
2013-06-08 22:08:00,68.1,64.4,30.12,South,185,0.0,0.0,88,0.00,CLR,,0.00,WeatherDisplay:10.37,2013-06-09 03:08:00,
2013-06-08 22:13:00,67.9,64.5,30.12,South,185,0.0,0.0,89,0.00,CLR,,0.00,WeatherDisplay:10.37,2013-06-09 03:13:00,
2013-06-08 22:18:00,67.9,64.5,30.12,South,185,0.0,0.0,89,0.00,CLR,,0.00,WeatherDisplay:10.37,2013-06-09 03:18:00,
2013-06-08 22:23:00,67.8,64.4,30.12,South,185,0.0,0.0,89,0.00,CLR,,0.00,WeatherDisplay:10.37,2013-06-09 03:23:00,
2013-06-08 22:28:00,67.8,64.4,30.12,South,185,0.0,0.0,89,0.00,CLR,,0.00,WeatherDisplay:10.37,2013-06-09 03:28:00,
2013-06-08 22:33:00,67.6,64.2,30.12,South,185,0.0,0.0,89,0.00,CLR,,0.00,WeatherDisplay:10.37,2013-06-09 03:33:00,
2013-06-08 22:38:00,67.8,64.8,30.12,South,185,0.0,0.0,90,0.00,CLR,,0.00,WeatherDisplay:10.37,2013-06-09 03:38:00,
2013-06-08 22:43:00,67.6,64.2,30.12,South,185,0.0,0.0,89,0.00,CLR,,0.00,WeatherDisplay:10.37,2013-06-09 03:43:00,
2013-06-08 22:48:00,67.6,64.6,30.12,South,185,0.0,0.0,90,0.00,CLR,,0.00,WeatherDisplay:10.37,2013-06-09 03:48:00,
2013-06-08 22:53:00,67.4,64.4,30.13,South,185,0.0,0.0,90,0.00,CLR,,0.00,WeatherDisplay:10.37,2013-06-09 03:53:00,
2013-06-08 22:58:00,67.3,64.3,30.13,South,185,0.0,0.0,90,0.00,CLR,,0.00,WeatherDisplay:10.37,2013-06-09 03:58:00,
2013-06-08 23:01:00,67.3,64.6,30.13,South,185,0.0,0.0,91,0.00,CLR,,0.00,WeatherDisplay:10.37,2013-06-09 04:01:00,
2013-06-08 23:02:00,67.3,64.6,30.13,South,185,0.0,0.0,91,0.00,CLR,,0.00,WeatherDisplay:10.37,2013-06-09 04:02:00,
2013-06-08 23:07:00,67.1,64.4,30.13,South,185,0.0,0.0,91,0.00,CLR,,0.00,WeatherDisplay:10.37,2013-06-09 04:07:00,
2013-06-08 23:12:00,67.1,64.4,30.13,South,185,0.0,0.0,91,0.00,CLR,,0.00,WeatherDisplay:10.37,2013-06-09 04:12:00,
2013-06-08 23:17:00,66.9,64.2,30.13,South,185,0.0,0.0,91,0.00,CLR,,0.00,WeatherDisplay:10.37,2013-06-09 04:17:00,
2013-06-08 23:22:00,66.9,64.2,30.13,South,185,0.0,0.0,91,0.00,CLR,,0.00,WeatherDisplay:10.37,2013-06-09 04:22:00,
2013-06-08 23:27:00,66.8,64.1,30.13,South,185,0.0,0.0,91,0.00,CLR,,0.00,WeatherDisplay:10.37,2013-06-09 04:27:00,
2013-06-08 23:32:00,66.8,64.4,30.13,South,185,0.0,0.0,92,0.00,CLR,,0.00,WeatherDisplay:10.37,2013-06-09 04:32:00,
2013-06-08 23:37:00,66.8,64.4,30.13,South,185,0.0,0.0,92,0.00,CLR,,0.00,WeatherDisplay:10.37,2013-06-09 04:37:00,
2013-06-08 23:42:00,66.8,64.4,30.13,South,185,0.0,0.0,92,0.00,CLR,,0.00,WeatherDisplay:10.37,2013-06-09 04:42:00,
2013-06-08 23:47:00,66.8,64.4,30.13,South,185,0.0,0.0,92,0.00,CLR,,0.00,WeatherDisplay:10.37,2013-06-09 04:47:00,
2013-06-08 23:52:00,66.8,64.4,30.14,South,185,0.0,0.0,92,0.00,CLR,,0.00,WeatherDisplay:10.37,2013-06-09 04:52:00,
2013-06-08 23:57:00,66.8,64.4,30.14,South,185,0.0,0.0,92,0.00,CLR,,0.00,WeatherDisplay:10.37,2013-06-09 04:57:00,